sensor_id;sensor_type;location;lat;lon;timestamp;temperature;humidity
23731;DHT22;12046;44.702;10.622;2023-02-11T00:01:09;1.30;74.20
23731;DHT22;12046;44.702;10.622;2023-02-11T00:03:35;1.30;74.40
23731;DHT22;12046;44.702;10.622;2023-02-11T00:06:04;1.20;74.50
23731;DHT22;12046;44.702;10.622;2023-02-11T00:08:30;1.20;74.80
23731;DHT22;12046;44.702;10.622;2023-02-11T00:10:57;1.20;75.10
23731;DHT22;12046;44.702;10.622;2023-02-11T00:13:23;1.10;75.40
23731;DHT22;12046;44.702;10.622;2023-02-11T00:15:50;1.10;75.60
23731;DHT22;12046;44.702;10.622;2023-02-11T00:18:16;1.00;75.80
23731;DHT22;12046;44.702;10.622;2023-02-11T00:20:42;1.00;76.00
23731;DHT22;12046;44.702;10.622;2023-02-11T00:23:08;0.90;76.20
23731;DHT22;12046;44.702;10.622;2023-02-11T00:25:39;1.00;76.50
23731;DHT22;12046;44.702;10.622;2023-02-11T00:28:05;0.90;76.70
23731;DHT22;12046;44.702;10.622;2023-02-11T00:30:30;0.90;76.90
23731;DHT22;12046;44.702;10.622;2023-02-11T00:32:58;0.90;77.20
23731;DHT22;12046;44.702;10.622;2023-02-11T00:35:24;0.90;77.40
23731;DHT22;12046;44.702;10.622;2023-02-11T00:37:52;0.90;77.60
23731;DHT22;12046;44.702;10.622;2023-02-11T00:40:18;0.90;77.70
23731;DHT22;12046;44.702;10.622;2023-02-11T00:42:44;0.90;77.80
23731;DHT22;12046;44.702;10.622;2023-02-11T00:45:10;0.90;77.90
23731;DHT22;12046;44.702;10.622;2023-02-11T00:47:36;1.00;77.90
23731;DHT22;12046;44.702;10.622;2023-02-11T00:50:02;1.00;77.70
23731;DHT22;12046;44.702;10.622;2023-02-11T00:52:30;1.00;77.60
23731;DHT22;12046;44.702;10.622;2023-02-11T00:54:56;1.10;77.50
23731;DHT22;12046;44.702;10.622;2023-02-11T00:57:22;1.10;77.40
23731;DHT22;12046;44.702;10.622;2023-02-11T00:59:48;1.10;77.40
23731;DHT22;12046;44.702;10.622;2023-02-11T01:02:14;1.10;77.40
23731;DHT22;12046;44.702;10.622;2023-02-11T01:08:02;1.10;77.40
23731;DHT22;12046;44.702;10.622;2023-02-11T01:10:27;1.10;77.30
23731;DHT22;12046;44.702;10.622;2023-02-11T01:12:53;1.10;77.90
23731;DHT22;12046;44.702;10.622;2023-02-11T01:15:20;1.00;77.20
23731;DHT22;12046;44.702;10.622;2023-02-11T01:17:46;1.00;77.30
23731;DHT22;12046;44.702;10.622;2023-02-11T01:20:24;1.00;77.50
23731;DHT22;12046;44.702;10.622;2023-02-11T01:22:51;1.00;77.60
23731;DHT22;12046;44.702;10.622;2023-02-11T01:25:17;1.00;77.60
23731;DHT22;12046;44.702;10.622;2023-02-11T01:27:43;1.00;77.60
23731;DHT22;12046;44.702;10.622;2023-02-11T01:30:11;1.00;77.70
23731;DHT22;12046;44.702;10.622;2023-02-11T01:32:37;0.90;77.50
23731;DHT22;12046;44.702;10.622;2023-02-11T01:35:03;0.90;77.40
23731;DHT22;12046;44.702;10.622;2023-02-11T01:37:32;0.80;77.20
23731;DHT22;12046;44.702;10.622;2023-02-11T01:39:58;0.80;77.30
23731;DHT22;12046;44.702;10.622;2023-02-11T01:42:23;0.80;77.40
23731;DHT22;12046;44.702;10.622;2023-02-11T01:44:50;0.80;77.40
23731;DHT22;12046;44.702;10.622;2023-02-11T01:47:17;0.80;77.30
23731;DHT22;12046;44.702;10.622;2023-02-11T01:49:48;0.80;77.20
23731;DHT22;12046;44.702;10.622;2023-02-11T01:52:28;0.80;77.00
23731;DHT22;12046;44.702;10.622;2023-02-11T01:54:59;0.80;76.80
23731;DHT22;12046;44.702;10.622;2023-02-11T01:57:52;0.80;76.70
23731;DHT22;12046;44.702;10.622;2023-02-11T02:03:12;0.80;76.40
23731;DHT22;12046;44.702;10.622;2023-02-11T02:05:47;0.80;76.30
23731;DHT22;12046;44.702;10.622;2023-02-11T02:10:52;0.80;76.20
23731;DHT22;12046;44.702;10.622;2023-02-11T02:13:22;0.80;76.10
23731;DHT22;12046;44.702;10.622;2023-02-11T02:15:52;0.90;76.00
23731;DHT22;12046;44.702;10.622;2023-02-11T02:18:47;0.90;75.80
23731;DHT22;12046;44.702;10.622;2023-02-11T02:35:42;1.00;74.80
23731;DHT22;12046;44.702;10.622;2023-02-11T02:43:49;0.90;74.70
23731;DHT22;12046;44.702;10.622;2023-02-11T02:46:20;1.00;74.70
23731;DHT22;12046;44.702;10.622;2023-02-11T02:48:47;1.00;74.40
23731;DHT22;12046;44.702;10.622;2023-02-11T02:54:21;1.10;73.90
23731;DHT22;12046;44.702;10.622;2023-02-11T02:56:58;1.20;73.60
23731;DHT22;12046;44.702;10.622;2023-02-11T03:00:02;1.20;73.20
23731;DHT22;12046;44.702;10.622;2023-02-11T03:03:04;1.30;73.00
23731;DHT22;12046;44.702;10.622;2023-02-11T03:08:23;1.10;72.90
23731;DHT22;12046;44.702;10.622;2023-02-11T03:10:51;1.00;73.10
23731;DHT22;12046;44.702;10.622;2023-02-11T03:13:21;0.90;73.40
23731;DHT22;12046;44.702;10.622;2023-02-11T03:15:51;0.80;74.30
23731;DHT22;12046;44.702;10.622;2023-02-11T03:18:22;0.80;74.20
23731;DHT22;12046;44.702;10.622;2023-02-11T03:20:51;0.80;74.40
23731;DHT22;12046;44.702;10.622;2023-02-11T03:23:18;0.70;74.50
23731;DHT22;12046;44.702;10.622;2023-02-11T03:25:54;0.70;74.70
23731;DHT22;12046;44.702;10.622;2023-02-11T03:28:31;0.60;74.90
23731;DHT22;12046;44.702;10.622;2023-02-11T03:34:05;0.70;75.20
23731;DHT22;12046;44.702;10.622;2023-02-11T03:36:42;0.70;75.10
23731;DHT22;12046;44.702;10.622;2023-02-11T03:39:20;0.70;74.90
23731;DHT22;12046;44.702;10.622;2023-02-11T03:41:47;0.70;74.90
23731;DHT22;12046;44.702;10.622;2023-02-11T03:44:15;0.80;74.80
23731;DHT22;12046;44.702;10.622;2023-02-11T03:46:43;0.80;74.80
23731;DHT22;12046;44.702;10.622;2023-02-11T03:49:20;0.80;74.70
23731;DHT22;12046;44.702;10.622;2023-02-11T03:51:48;0.80;74.60
23731;DHT22;12046;44.702;10.622;2023-02-11T03:54:18;0.80;74.50
23731;DHT22;12046;44.702;10.622;2023-02-11T03:56:53;0.70;74.50
23731;DHT22;12046;44.702;10.622;2023-02-11T03:59:20;0.70;74.60
23731;DHT22;12046;44.702;10.622;2023-02-11T04:01:46;0.60;74.80
23731;DHT22;12046;44.702;10.622;2023-02-11T04:04:12;0.60;75.00
23731;DHT22;12046;44.702;10.622;2023-02-11T04:06:38;0.50;75.10
23731;DHT22;12046;44.702;10.622;2023-02-11T04:09:03;0.40;75.20
23731;DHT22;12046;44.702;10.622;2023-02-11T04:11:29;0.40;75.30
23731;DHT22;12046;44.702;10.622;2023-02-11T04:13:55;0.40;75.50
23731;DHT22;12046;44.702;10.622;2023-02-11T04:16:21;0.30;75.50
23731;DHT22;12046;44.702;10.622;2023-02-11T04:18:47;0.30;75.50
23731;DHT22;12046;44.702;10.622;2023-02-11T04:21:12;0.30;75.60
23731;DHT22;12046;44.702;10.622;2023-02-11T04:23:38;0.40;75.50
23731;DHT22;12046;44.702;10.622;2023-02-11T04:26:04;0.40;75.40
23731;DHT22;12046;44.702;10.622;2023-02-11T04:28:30;0.40;75.90
23731;DHT22;12046;44.702;10.622;2023-02-11T04:30:56;0.40;75.10
23731;DHT22;12046;44.702;10.622;2023-02-11T04:33:22;0.40;75.00
23731;DHT22;12046;44.702;10.622;2023-02-11T04:35:48;0.40;74.90
23731;DHT22;12046;44.702;10.622;2023-02-11T04:38:14;0.40;74.80
23731;DHT22;12046;44.702;10.622;2023-02-11T04:40:40;0.40;74.80
23731;DHT22;12046;44.702;10.622;2023-02-11T04:43:06;0.40;74.70
23731;DHT22;12046;44.702;10.622;2023-02-11T04:45:32;0.30;75.20
23731;DHT22;12046;44.702;10.622;2023-02-11T04:47:58;0.40;74.60
23731;DHT22;12046;44.702;10.622;2023-02-11T04:50:24;0.30;74.50
23731;DHT22;12046;44.702;10.622;2023-02-11T04:52:50;0.30;74.40
23731;DHT22;12046;44.702;10.622;2023-02-11T04:55:15;0.40;74.30
23731;DHT22;12046;44.702;10.622;2023-02-11T04:57:41;0.40;74.30
23731;DHT22;12046;44.702;10.622;2023-02-11T05:00:08;0.50;74.30
23731;DHT22;12046;44.702;10.622;2023-02-11T05:02:34;0.50;74.30
23731;DHT22;12046;44.702;10.622;2023-02-11T05:05:00;0.60;74.30
23731;DHT22;12046;44.702;10.622;2023-02-11T05:07:26;0.60;74.20
23731;DHT22;12046;44.702;10.622;2023-02-11T05:09:52;0.60;74.10
23731;DHT22;12046;44.702;10.622;2023-02-11T05:12:18;0.70;74.10
23731;DHT22;12046;44.702;10.622;2023-02-11T05:14:44;0.70;73.90
23731;DHT22;12046;44.702;10.622;2023-02-11T05:17:10;0.70;73.80
23731;DHT22;12046;44.702;10.622;2023-02-11T05:19:35;0.70;73.70
23731;DHT22;12046;44.702;10.622;2023-02-11T05:22:01;0.70;73.60
23731;DHT22;12046;44.702;10.622;2023-02-11T05:24:27;0.70;73.60
23731;DHT22;12046;44.702;10.622;2023-02-11T05:26:53;0.60;73.60
23731;DHT22;12046;44.702;10.622;2023-02-11T05:29:18;0.60;73.40
23731;DHT22;12046;44.702;10.622;2023-02-11T05:31:44;0.60;73.50
23731;DHT22;12046;44.702;10.622;2023-02-11T05:34:10;0.50;73.60
23731;DHT22;12046;44.702;10.622;2023-02-11T05:36:36;0.40;73.80
23731;DHT22;12046;44.702;10.622;2023-02-11T05:39:02;0.40;74.00
23731;DHT22;12046;44.702;10.622;2023-02-11T05:41:27;0.30;74.00
23731;DHT22;12046;44.702;10.622;2023-02-11T05:43:53;0.20;74.60
23731;DHT22;12046;44.702;10.622;2023-02-11T05:46:19;0.20;74.20
23731;DHT22;12046;44.702;10.622;2023-02-11T05:48:45;0.10;74.40
23731;DHT22;12046;44.702;10.622;2023-02-11T05:51:10;0.10;74.50
23731;DHT22;12046;44.702;10.622;2023-02-11T05:53:36;0.00;74.60
23731;DHT22;12046;44.702;10.622;2023-02-11T05:56:02;0.00;74.60
23731;DHT22;12046;44.702;10.622;2023-02-11T05:58:28;0.00;74.60
23731;DHT22;12046;44.702;10.622;2023-02-11T06:00:53;0.00;74.60
23731;DHT22;12046;44.702;10.622;2023-02-11T06:03:19;0.00;74.50
23731;DHT22;12046;44.702;10.622;2023-02-11T06:05:45;0.00;74.30
23731;DHT22;12046;44.702;10.622;2023-02-11T06:08:11;0.00;74.10
23731;DHT22;12046;44.702;10.622;2023-02-11T06:10:37;0.00;74.60
23731;DHT22;12046;44.702;10.622;2023-02-11T06:13:03;0.10;73.80
23731;DHT22;12046;44.702;10.622;2023-02-11T06:15:29;0.10;73.70
23731;DHT22;12046;44.702;10.622;2023-02-11T06:17:55;0.10;73.50
23731;DHT22;12046;44.702;10.622;2023-02-11T06:20:21;0.10;73.30
23731;DHT22;12046;44.702;10.622;2023-02-11T06:22:47;0.10;73.10
23731;DHT22;12046;44.702;10.622;2023-02-11T06:25:13;0.20;73.10
23731;DHT22;12046;44.702;10.622;2023-02-11T06:27:39;0.20;72.90
23731;DHT22;12046;44.702;10.622;2023-02-11T06:30:06;0.20;72.70
23731;DHT22;12046;44.702;10.622;2023-02-11T06:32:32;0.20;72.70
23731;DHT22;12046;44.702;10.622;2023-02-11T06:34:59;0.20;72.60
23731;DHT22;12046;44.702;10.622;2023-02-11T06:37:25;0.20;72.50
23731;DHT22;12046;44.702;10.622;2023-02-11T06:39:51;0.20;72.30
23731;DHT22;12046;44.702;10.622;2023-02-11T06:42:16;0.30;72.20
23731;DHT22;12046;44.702;10.622;2023-02-11T06:44:42;0.30;72.00
23731;DHT22;12046;44.702;10.622;2023-02-11T06:47:09;0.30;71.80
23731;DHT22;12046;44.702;10.622;2023-02-11T06:49:35;0.40;71.70
23731;DHT22;12046;44.702;10.622;2023-02-11T06:52:00;0.40;71.50
23731;DHT22;12046;44.702;10.622;2023-02-11T06:54:27;0.50;71.20
23731;DHT22;12046;44.702;10.622;2023-02-11T06:56:53;0.50;70.90
23731;DHT22;12046;44.702;10.622;2023-02-11T06:59:19;0.60;70.80
23731;DHT22;12046;44.702;10.622;2023-02-11T07:01:46;0.70;70.60
23731;DHT22;12046;44.702;10.622;2023-02-11T07:04:12;0.80;70.40
23731;DHT22;12046;44.702;10.622;2023-02-11T07:06:39;0.90;70.20
23731;DHT22;12046;44.702;10.622;2023-02-11T07:09:05;1.00;70.00
23731;DHT22;12046;44.702;10.622;2023-02-11T07:11:32;1.10;69.50
23731;DHT22;12046;44.702;10.622;2023-02-11T07:14:04;1.30;69.20
23731;DHT22;12046;44.702;10.622;2023-02-11T07:16:33;1.50;68.90
23731;DHT22;12046;44.702;10.622;2023-02-11T07:18:59;1.70;68.40
23731;DHT22;12046;44.702;10.622;2023-02-11T07:21:25;1.90;68.00
23731;DHT22;12046;44.702;10.622;2023-02-11T07:23:52;2.10;67.60
23731;DHT22;12046;44.702;10.622;2023-02-11T07:26:20;2.30;67.20
23731;DHT22;12046;44.702;10.622;2023-02-11T07:28:50;2.40;66.60
23731;DHT22;12046;44.702;10.622;2023-02-11T07:31:19;2.60;66.00
23731;DHT22;12046;44.702;10.622;2023-02-11T07:33:45;2.80;65.50
23731;DHT22;12046;44.702;10.622;2023-02-11T07:36:12;3.00;64.90
23731;DHT22;12046;44.702;10.622;2023-02-11T07:38:38;3.10;64.50
23731;DHT22;12046;44.702;10.622;2023-02-11T07:41:06;3.30;64.20
23731;DHT22;12046;44.702;10.622;2023-02-11T07:43:33;3.50;63.80
23731;DHT22;12046;44.702;10.622;2023-02-11T07:46:01;3.70;63.60
23731;DHT22;12046;44.702;10.622;2023-02-11T07:48:27;4.00;63.40
23731;DHT22;12046;44.702;10.622;2023-02-11T07:50:53;4.20;62.80
23731;DHT22;12046;44.702;10.622;2023-02-11T07:53:19;4.50;62.00
23731;DHT22;12046;44.702;10.622;2023-02-11T07:55:45;4.70;61.60
23731;DHT22;12046;44.702;10.622;2023-02-11T07:58:10;4.90;61.60
23731;DHT22;12046;44.702;10.622;2023-02-11T08:00:36;5.10;60.70
23731;DHT22;12046;44.702;10.622;2023-02-11T08:03:02;5.40;60.20
23731;DHT22;12046;44.702;10.622;2023-02-11T08:05:28;5.60;59.60
23731;DHT22;12046;44.702;10.622;2023-02-11T08:07:55;5.80;59.40
23731;DHT22;12046;44.702;10.622;2023-02-11T08:10:20;6.00;59.10
23731;DHT22;12046;44.702;10.622;2023-02-11T08:12:46;6.10;58.60
23731;DHT22;12046;44.702;10.622;2023-02-11T08:15:12;6.30;58.30
23731;DHT22;12046;44.702;10.622;2023-02-11T08:17:38;6.50;58.00
23731;DHT22;12046;44.702;10.622;2023-02-11T08:20:04;6.80;57.60
23731;DHT22;12046;44.702;10.622;2023-02-11T08:22:32;7.00;57.10
23731;DHT22;12046;44.702;10.622;2023-02-11T08:24:58;7.20;56.80
23731;DHT22;12046;44.702;10.622;2023-02-11T08:27:24;7.40;56.60
23731;DHT22;12046;44.702;10.622;2023-02-11T08:29:52;7.70;56.70
23731;DHT22;12046;44.702;10.622;2023-02-11T08:32:18;7.90;56.40
23731;DHT22;12046;44.702;10.622;2023-02-11T08:34:43;8.30;56.10
23731;DHT22;12046;44.702;10.622;2023-02-11T08:37:09;8.60;55.30
23731;DHT22;12046;44.702;10.622;2023-02-11T08:39:36;8.90;54.90
23731;DHT22;12046;44.702;10.622;2023-02-11T08:42:02;9.10;54.20
23731;DHT22;12046;44.702;10.622;2023-02-11T08:44:27;9.40;53.90
23731;DHT22;12046;44.702;10.622;2023-02-11T08:46:54;9.50;53.30
23731;DHT22;12046;44.702;10.622;2023-02-11T08:49:20;9.80;53.00
23731;DHT22;12046;44.702;10.622;2023-02-11T08:51:46;10.00;52.70
23731;DHT22;12046;44.702;10.622;2023-02-11T08:54:13;10.20;52.10
23731;DHT22;12046;44.702;10.622;2023-02-11T08:56:39;10.40;51.60
23731;DHT22;12046;44.702;10.622;2023-02-11T08:59:06;10.70;51.10
23731;DHT22;12046;44.702;10.622;2023-02-11T09:01:34;10.90;51.10
23731;DHT22;12046;44.702;10.622;2023-02-11T09:04:00;11.10;50.50
23731;DHT22;12046;44.702;10.622;2023-02-11T09:06:26;11.30;49.80
23731;DHT22;12046;44.702;10.622;2023-02-11T09:08:53;11.50;49.50
23731;DHT22;12046;44.702;10.622;2023-02-11T09:11:29;11.50;48.80
23731;DHT22;12046;44.702;10.622;2023-02-11T09:13:55;11.70;48.50
23731;DHT22;12046;44.702;10.622;2023-02-11T09:16:27;11.90;48.50
23731;DHT22;12046;44.702;10.622;2023-02-11T09:18:55;12.40;48.50
23731;DHT22;12046;44.702;10.622;2023-02-11T09:21:21;13.10;48.00
23731;DHT22;12046;44.702;10.622;2023-02-11T09:23:47;14.00;47.10
23731;DHT22;12046;44.702;10.622;2023-02-11T09:26:25;14.90;45.60
23731;DHT22;12046;44.702;10.622;2023-02-11T09:28:51;16.20;43.80
23731;DHT22;12046;44.702;10.622;2023-02-11T09:31:21;17.90;42.10
23731;DHT22;12046;44.702;10.622;2023-02-11T09:33:49;19.20;39.90
23731;DHT22;12046;44.702;10.622;2023-02-11T09:36:36;20.10;38.30
23731;DHT22;12046;44.702;10.622;2023-02-11T09:39:04;20.60;37.80
23731;DHT22;12046;44.702;10.622;2023-02-11T09:41:34;21.10;37.70
23731;DHT22;12046;44.702;10.622;2023-02-11T09:44:03;22.00;37.20
23731;DHT22;12046;44.702;10.622;2023-02-11T09:46:35;23.20;36.80
23731;DHT22;12046;44.702;10.622;2023-02-11T09:49:02;24.50;36.00
23731;DHT22;12046;44.702;10.622;2023-02-11T09:51:39;26.00;35.00
23731;DHT22;12046;44.702;10.622;2023-02-11T09:54:22;27.40;34.20
23731;DHT22;12046;44.702;10.622;2023-02-11T09:56:51;28.80;33.00
23731;DHT22;12046;44.702;10.622;2023-02-11T09:59:16;29.90;32.20
23731;DHT22;12046;44.702;10.622;2023-02-11T10:02:00;30.80;31.70
23731;DHT22;12046;44.702;10.622;2023-02-11T10:07:15;32.40;30.30
23731;DHT22;12046;44.702;10.622;2023-02-11T10:24:17;35.00;28.90
23731;DHT22;12046;44.702;10.622;2023-02-11T10:26:44;35.40;28.70
23731;DHT22;12046;44.702;10.622;2023-02-11T10:31:55;36.10;28.30
23731;DHT22;12046;44.702;10.622;2023-02-11T10:34:22;36.50;28.30
23731;DHT22;12046;44.702;10.622;2023-02-11T10:36:47;36.90;28.30
23731;DHT22;12046;44.702;10.622;2023-02-11T10:39:20;37.50;28.40
23731;DHT22;12046;44.702;10.622;2023-02-11T10:41:51;38.20;28.30
23731;DHT22;12046;44.702;10.622;2023-02-11T10:44:25;38.60;28.00
23731;DHT22;12046;44.702;10.622;2023-02-11T10:46:52;38.40;27.70
23731;DHT22;12046;44.702;10.622;2023-02-11T10:49:40;37.90;27.70
23731;DHT22;12046;44.702;10.622;2023-02-11T10:52:24;37.60;27.60
23731;DHT22;12046;44.702;10.622;2023-02-11T10:57:40;37.80;27.40
23731;DHT22;12046;44.702;10.622;2023-02-11T11:02:59;39.10;27.30
23731;DHT22;12046;44.702;10.622;2023-02-11T11:05:52;39.40;26.90
23731;DHT22;12046;44.702;10.622;2023-02-11T11:08:20;39.40;27.10
23731;DHT22;12046;44.702;10.622;2023-02-11T11:10:48;39.70;27.10
23731;DHT22;12046;44.702;10.622;2023-02-11T11:13:36;39.60;27.00
23731;DHT22;12046;44.702;10.622;2023-02-11T11:16:16;39.30;26.90
23731;DHT22;12046;44.702;10.622;2023-02-11T11:18:44;39.10;27.00
23731;DHT22;12046;44.702;10.622;2023-02-11T11:23:47;38.10;27.00
23731;DHT22;12046;44.702;10.622;2023-02-11T11:26:13;36.90;27.10
23731;DHT22;12046;44.702;10.622;2023-02-11T11:28:49;36.10;27.10
23731;DHT22;12046;44.702;10.622;2023-02-11T11:31:43;35.30;27.20
23731;DHT22;12046;44.702;10.622;2023-02-11T11:34:40;34.30;27.40
23731;DHT22;12046;44.702;10.622;2023-02-11T11:42:34;31.30;27.80
23731;DHT22;12046;44.702;10.622;2023-02-11T11:45:01;30.30;28.00
23731;DHT22;12046;44.702;10.622;2023-02-11T11:50:43;28.30;28.60
23731;DHT22;12046;44.702;10.622;2023-02-11T11:56:12;28.70;28.90
23731;DHT22;12046;44.702;10.622;2023-02-11T11:58:38;30.20;28.80
23731;DHT22;12046;44.702;10.622;2023-02-11T12:06:36;31.70;28.10
23731;DHT22;12046;44.702;10.622;2023-02-11T12:09:12;30.70;28.10
23731;DHT22;12046;44.702;10.622;2023-02-11T12:14:40;28.70;28.60
23731;DHT22;12046;44.702;10.622;2023-02-11T12:20:24;28.20;29.60
23731;DHT22;12046;44.702;10.622;2023-02-11T12:33:07;28.80;28.90
23731;DHT22;12046;44.702;10.622;2023-02-11T12:40:54;26.40;29.70
23731;DHT22;12046;44.702;10.622;2023-02-11T12:43:32;25.80;29.90
23731;DHT22;12046;44.702;10.622;2023-02-11T12:55:18;25.10;30.10
23731;DHT22;12046;44.702;10.622;2023-02-11T12:57:45;25.00;30.10
23731;DHT22;12046;44.702;10.622;2023-02-11T13:00:22;24.80;30.00
23731;DHT22;12046;44.702;10.622;2023-02-11T13:05:47;23.90;30.60
23731;DHT22;12046;44.702;10.622;2023-02-11T13:08:30;23.30;31.00
23731;DHT22;12046;44.702;10.622;2023-02-11T13:11:00;22.60;31.50
23731;DHT22;12046;44.702;10.622;2023-02-11T13:13:34;22.00;32.00
23731;DHT22;12046;44.702;10.622;2023-02-11T13:16:08;21.40;32.50
23731;DHT22;12046;44.702;10.622;2023-02-11T13:19:00;21.00;32.90
23731;DHT22;12046;44.702;10.622;2023-02-11T13:21:35;20.80;33.20
23731;DHT22;12046;44.702;10.622;2023-02-11T13:26:35;20.80;33.50
23731;DHT22;12046;44.702;10.622;2023-02-11T13:31:29;20.80;33.40
23731;DHT22;12046;44.702;10.622;2023-02-11T13:33:56;20.50;33.50
23731;DHT22;12046;44.702;10.622;2023-02-11T13:36:24;20.20;33.60
23731;DHT22;12046;44.702;10.622;2023-02-11T13:39:18;19.80;33.90
23731;DHT22;12046;44.702;10.622;2023-02-11T13:41:45;19.30;34.20
23731;DHT22;12046;44.702;10.622;2023-02-11T13:44:25;18.90;34.50
23731;DHT22;12046;44.702;10.622;2023-02-11T13:47:01;18.60;34.90
23731;DHT22;12046;44.702;10.622;2023-02-11T13:49:32;18.30;35.20
23731;DHT22;12046;44.702;10.622;2023-02-11T13:52:02;18.20;35.40
23731;DHT22;12046;44.702;10.622;2023-02-11T13:54:33;18.00;35.60
23731;DHT22;12046;44.702;10.622;2023-02-11T13:59:46;17.50;36.10
23731;DHT22;12046;44.702;10.622;2023-02-11T14:02:30;17.20;36.30
23731;DHT22;12046;44.702;10.622;2023-02-11T14:05:23;16.90;36.50
23731;DHT22;12046;44.702;10.622;2023-02-11T14:13:59;16.00;37.30
23731;DHT22;12046;44.702;10.622;2023-02-11T14:16:23;15.80;37.40
23731;DHT22;12046;44.702;10.622;2023-02-11T14:27:39;15.70;38.00
23731;DHT22;12046;44.702;10.622;2023-02-11T14:30:35;16.20;37.90
23731;DHT22;12046;44.702;10.622;2023-02-11T14:33:10;17.00;37.40
23731;DHT22;12046;44.702;10.622;2023-02-11T14:38:59;20.30;35.10
23731;DHT22;12046;44.702;10.622;2023-02-11T14:41:22;22.30;33.70
23731;DHT22;12046;44.702;10.622;2023-02-11T14:43:56;24.70;32.00
23731;DHT22;12046;44.702;10.622;2023-02-11T14:46:24;26.30;31.20
23731;DHT22;12046;44.702;10.622;2023-02-11T14:48:53;27.70;30.50
23731;DHT22;12046;44.702;10.622;2023-02-11T14:51:30;28.90;30.10
23731;DHT22;12046;44.702;10.622;2023-02-11T14:54:02;30.00;29.80
23731;DHT22;12046;44.702;10.622;2023-02-11T14:56:30;30.90;29.50
23731;DHT22;12046;44.702;10.622;2023-02-11T14:58:57;31.00;29.10
23731;DHT22;12046;44.702;10.622;2023-02-11T15:01:30;30.50;28.90
23731;DHT22;12046;44.702;10.622;2023-02-11T15:04:04;29.30;28.90
23731;DHT22;12046;44.702;10.622;2023-02-11T15:06:38;27.70;29.20
23731;DHT22;12046;44.702;10.622;2023-02-11T15:09:17;26.30;29.30
23731;DHT22;12046;44.702;10.622;2023-02-11T15:11:46;24.90;29.70
23731;DHT22;12046;44.702;10.622;2023-02-11T15:14:32;23.90;30.30
23731;DHT22;12046;44.702;10.622;2023-02-11T15:17:07;24.00;30.80
23731;DHT22;12046;44.702;10.622;2023-02-11T15:19:39;24.70;30.70
23731;DHT22;12046;44.702;10.622;2023-02-11T15:22:25;25.70;30.50
23731;DHT22;12046;44.702;10.622;2023-02-11T15:25:20;26.80;30.00
23731;DHT22;12046;44.702;10.622;2023-02-11T15:27:53;27.80;29.80
23731;DHT22;12046;44.702;10.622;2023-02-11T15:32:51;28.90;29.50
23731;DHT22;12046;44.702;10.622;2023-02-11T15:35:33;29.20;29.40
23731;DHT22;12046;44.702;10.622;2023-02-11T15:38:01;29.30;29.40
23731;DHT22;12046;44.702;10.622;2023-02-11T15:40:31;29.20;29.30
23731;DHT22;12046;44.702;10.622;2023-02-11T15:43:06;28.90;29.30
23731;DHT22;12046;44.702;10.622;2023-02-11T15:48:41;28.20;29.40
23731;DHT22;12046;44.702;10.622;2023-02-11T15:51:31;27.80;29.50
23731;DHT22;12046;44.702;10.622;2023-02-11T15:54:03;27.20;29.60
23731;DHT22;12046;44.702;10.622;2023-02-11T15:56:39;26.70;29.70
23731;DHT22;12046;44.702;10.622;2023-02-11T15:59:32;26.10;29.80
23731;DHT22;12046;44.702;10.622;2023-02-11T16:04:53;24.30;30.40
23731;DHT22;12046;44.702;10.622;2023-02-11T16:07:44;23.30;30.80
23731;DHT22;12046;44.702;10.622;2023-02-11T16:10:18;21.90;31.30
23731;DHT22;12046;44.702;10.622;2023-02-11T16:13:29;20.50;32.00
23731;DHT22;12046;44.702;10.622;2023-02-11T16:15:56;19.20;32.80
23731;DHT22;12046;44.702;10.622;2023-02-11T16:18:44;17.90;33.70
23731;DHT22;12046;44.702;10.622;2023-02-11T16:21:15;16.80;34.70
23731;DHT22;12046;44.702;10.622;2023-02-11T16:23:42;16.00;35.50
23731;DHT22;12046;44.702;10.622;2023-02-11T16:28:51;14.70;36.90
23731;DHT22;12046;44.702;10.622;2023-02-11T16:31:18;14.20;37.50
23731;DHT22;12046;44.702;10.622;2023-02-11T16:33:44;13.80;38.40
23731;DHT22;12046;44.702;10.622;2023-02-11T16:36:14;13.40;39.00
23731;DHT22;12046;44.702;10.622;2023-02-11T16:38:43;13.00;39.50
23731;DHT22;12046;44.702;10.622;2023-02-11T16:41:09;12.80;39.80
23731;DHT22;12046;44.702;10.622;2023-02-11T16:43:37;12.50;40.30
23731;DHT22;12046;44.702;10.622;2023-02-11T16:46:04;12.30;41.30
23731;DHT22;12046;44.702;10.622;2023-02-11T16:48:31;12.10;41.00
23731;DHT22;12046;44.702;10.622;2023-02-11T16:50:58;11.90;41.60
23731;DHT22;12046;44.702;10.622;2023-02-11T16:53:24;11.70;42.10
23731;DHT22;12046;44.702;10.622;2023-02-11T16:55:51;11.50;42.50
23731;DHT22;12046;44.702;10.622;2023-02-11T16:58:18;11.40;42.80
23731;DHT22;12046;44.702;10.622;2023-02-11T17:00:45;11.20;43.00
23731;DHT22;12046;44.702;10.622;2023-02-11T17:03:24;11.10;43.20
23731;DHT22;12046;44.702;10.622;2023-02-11T17:05:51;11.00;43.50
23731;DHT22;12046;44.702;10.622;2023-02-11T17:08:18;10.90;43.90
23731;DHT22;12046;44.702;10.622;2023-02-11T17:10:44;10.80;44.40
23731;DHT22;12046;44.702;10.622;2023-02-11T17:13:10;10.60;44.80
23731;DHT22;12046;44.702;10.622;2023-02-11T17:15:36;10.50;45.10
23731;DHT22;12046;44.702;10.622;2023-02-11T17:18:02;10.50;45.60
23731;DHT22;12046;44.702;10.622;2023-02-11T17:20:28;10.40;45.80
23731;DHT22;12046;44.702;10.622;2023-02-11T17:22:53;10.30;46.10
23731;DHT22;12046;44.702;10.622;2023-02-11T17:25:19;10.20;46.40
23731;DHT22;12046;44.702;10.622;2023-02-11T17:27:45;10.20;46.80
23731;DHT22;12046;44.702;10.622;2023-02-11T17:30:12;10.10;46.90
23731;DHT22;12046;44.702;10.622;2023-02-11T17:32:38;10.00;46.80
23731;DHT22;12046;44.702;10.622;2023-02-11T17:35:04;9.90;46.80
23731;DHT22;12046;44.702;10.622;2023-02-11T17:37:31;9.90;47.00
23731;DHT22;12046;44.702;10.622;2023-02-11T17:39:57;9.80;47.30
23731;DHT22;12046;44.702;10.622;2023-02-11T17:42:23;9.70;47.30
23731;DHT22;12046;44.702;10.622;2023-02-11T17:44:48;9.70;47.30
23731;DHT22;12046;44.702;10.622;2023-02-11T17:47:14;9.60;47.20
23731;DHT22;12046;44.702;10.622;2023-02-11T17:49:41;9.50;47.30
23731;DHT22;12046;44.702;10.622;2023-02-11T17:52:06;9.50;47.70
23731;DHT22;12046;44.702;10.622;2023-02-11T17:54:32;9.50;48.10
23731;DHT22;12046;44.702;10.622;2023-02-11T17:56:58;9.40;48.30
23731;DHT22;12046;44.702;10.622;2023-02-11T17:59:24;9.40;48.60
23731;DHT22;12046;44.702;10.622;2023-02-11T18:01:50;9.30;48.90
23731;DHT22;12046;44.702;10.622;2023-02-11T18:04:17;9.30;48.90
23731;DHT22;12046;44.702;10.622;2023-02-11T18:06:44;9.20;48.90
23731;DHT22;12046;44.702;10.622;2023-02-11T18:09:18;9.20;48.90
23731;DHT22;12046;44.702;10.622;2023-02-11T18:11:44;9.10;49.00
23731;DHT22;12046;44.702;10.622;2023-02-11T18:14:11;9.00;49.40